createdAt,value
2022-10-12T00:00:29.933Z,24.38
2022-10-12T00:04:31.636Z,22.92
2022-10-12T00:08:35.058Z,24.52
2022-10-12T00:12:36.963Z,29.23
2022-10-12T00:16:38.652Z,28.52
2022-10-12T00:20:43.472Z,25.50
2022-10-12T00:24:45.190Z,31.95
2022-10-12T00:28:47.627Z,28.33
2022-10-12T00:32:49.329Z,24.73
2022-10-12T00:36:51.058Z,29.43
2022-10-12T00:40:52.748Z,32.63
2022-10-12T00:44:54.655Z,28.90
2022-10-12T00:49:01.619Z,24.63
2022-10-12T00:53:06.181Z,31.80
2022-10-12T00:57:09.914Z,33.53
2022-10-12T01:01:11.977Z,25.95
2022-10-12T01:05:13.868Z,25.13
2022-10-12T01:09:15.787Z,25.73
2022-10-12T01:13:18.233Z,31.58
2022-10-12T01:17:36.615Z,25.13
2022-10-12T01:21:49.386Z,28.75
2022-10-12T01:26:38.483Z,30.50
2022-10-12T01:30:47.504Z,30.35
2022-10-12T01:35:21.129Z,27.98
2022-10-12T01:39:40.417Z,24.70
2022-10-12T01:43:44.210Z,27.38
2022-10-12T01:47:52.626Z,27.48
2022-10-12T01:52:12.880Z,25.77
2022-10-12T01:56:23.030Z,30.73
2022-10-12T02:00:24.686Z,28.02
2022-10-12T02:04:47.529Z,28.00
2022-10-12T02:09:14.689Z,26.37
2022-10-12T02:13:20.052Z,26.23
2022-10-12T02:17:23.209Z,27.60
2022-10-12T02:21:29.868Z,27.88
2022-10-12T02:25:33.292Z,24.53
2022-10-12T02:29:38.589Z,22.77
2022-10-12T02:33:51.103Z,24.02
2022-10-12T02:37:58.559Z,28.37
2022-10-12T02:42:08.927Z,27.65
2022-10-12T02:46:11.953Z,23.88
2022-10-12T02:50:15.556Z,23.03
2022-10-12T02:54:17.455Z,21.93
2022-10-12T02:58:19.818Z,19.57
2022-10-12T03:02:21.837Z,17.50
2022-10-12T03:06:23.907Z,21.75
2022-10-12T03:10:25.596Z,22.67
2022-10-12T03:14:27.583Z,19.13
2022-10-12T03:18:29.248Z,22.30
2022-10-12T03:22:30.906Z,22.52
2022-10-12T03:26:32.935Z,28.57
2022-10-12T03:30:34.630Z,25.17
2022-10-12T03:34:36.280Z,22.57
2022-10-12T03:38:37.964Z,25.67
2022-10-12T03:42:39.646Z,22.08
2022-10-12T03:46:41.289Z,27.57
2022-10-12T03:50:42.956Z,30.77
2022-10-12T03:54:44.604Z,23.05
2022-10-12T03:58:46.243Z,22.77
2022-10-12T04:02:48.233Z,25.27
2022-10-12T04:06:49.915Z,20.73
2022-10-12T04:10:51.704Z,25.52
2022-10-12T04:14:53.362Z,24.10
2022-10-12T04:18:54.999Z,26.73
2022-10-12T04:22:56.623Z,24.17
2022-10-12T04:26:58.266Z,29.70
2022-10-12T04:30:59.952Z,28.50
2022-10-12T04:35:01.643Z,31.85
2022-10-12T04:39:03.756Z,26.08
2022-10-12T04:43:05.501Z,26.60
2022-10-12T04:47:07.182Z,26.30
2022-10-12T04:51:09.702Z,27.25
2022-10-12T04:55:11.518Z,27.48
2022-10-12T04:59:13.305Z,26.43
2022-10-12T05:03:15.476Z,22.85
2022-10-12T05:07:17.277Z,22.60
2022-10-12T05:11:18.981Z,30.83
2022-10-12T05:15:20.622Z,24.52
2022-10-12T05:19:22.290Z,24.60
2022-10-12T05:23:23.973Z,24.05
2022-10-12T05:27:25.663Z,28.45
2022-10-12T05:31:27.353Z,23.47
2022-10-12T05:35:28.981Z,28.15
2022-10-12T05:39:30.651Z,26.53
2022-10-12T05:43:33.789Z,34.67
2022-10-12T05:47:35.681Z,31.07
2022-10-12T05:51:38.782Z,29.65
2022-10-12T05:55:40.472Z,28.23
2022-10-12T05:59:42.749Z,34.00
2022-10-12T06:03:44.437Z,23.87
2022-10-12T06:07:46.150Z,37.27
2022-10-12T06:11:47.844Z,32.22
2022-10-12T06:15:50.055Z,32.03
2022-10-12T06:19:51.739Z,34.93
2022-10-12T06:23:53.436Z,36.87
2022-10-12T06:27:55.163Z,39.83
2022-10-12T06:31:56.902Z,34.70
2022-10-12T06:35:58.635Z,35.20
2022-10-12T06:40:00.301Z,53.25
2022-10-12T06:44:01.967Z,45.70
2022-10-12T06:48:05.574Z,40.47
2022-10-12T06:52:07.246Z,37.53
2022-10-12T06:56:10.294Z,33.10
2022-10-12T07:00:13.311Z,38.58
2022-10-12T07:04:15.004Z,37.40
2022-10-12T07:08:16.637Z,33.27
2022-10-12T07:12:18.560Z,37.93
2022-10-12T07:16:20.267Z,35.97
2022-10-12T07:20:22.093Z,35.92
2022-10-12T07:24:23.747Z,42.27
2022-10-12T07:28:25.838Z,40.88
2022-10-12T07:32:27.544Z,35.03
2022-10-12T07:36:47.495Z,38.65
2022-10-12T07:40:51.092Z,38.55
2022-10-12T07:44:52.775Z,38.15
2022-10-12T07:48:54.495Z,37.50
2022-10-12T07:52:56.142Z,39.88
2022-10-12T07:56:57.813Z,40.22
2022-10-12T08:01:06.953Z,43.03
2022-10-12T08:05:09.005Z,44.47
2022-10-12T08:09:10.707Z,39.00
2022-10-12T08:13:12.360Z,47.85
2022-10-12T08:17:14.048Z,41.63
2022-10-12T08:21:16.952Z,36.55
2022-10-12T08:25:18.649Z,39.53
2022-10-12T08:29:20.455Z,40.65
2022-10-12T08:33:22.221Z,37.75
2022-10-12T08:37:23.989Z,41.13
2022-10-12T08:41:44.314Z,39.47
2022-10-12T08:45:55.638Z,40.25
2022-10-12T08:49:59.177Z,43.10
2022-10-12T08:54:07.403Z,43.63
2022-10-12T08:58:20.461Z,40.72
2022-10-12T09:02:31.365Z,41.20
2022-10-12T09:07:16.721Z,33.38
2022-10-12T09:11:41.190Z,36.38
2022-10-12T09:16:06.167Z,37.28
2022-10-12T09:20:35.227Z,36.00
2022-10-12T09:24:39.252Z,35.08
2022-10-12T09:28:45.209Z,36.70
2022-10-12T09:33:22.250Z,39.30
2022-10-12T09:37:30.996Z,37.80
2022-10-12T09:41:42.298Z,42.00
2022-10-12T09:45:44.130Z,31.55
2022-10-12T09:49:47.941Z,37.15
2022-10-12T09:53:55.349Z,29.75
2022-10-12T09:58:02.799Z,36.72
2022-10-12T10:02:11.375Z,36.58
2022-10-12T10:06:15.295Z,34.75
2022-10-12T10:10:29.560Z,32.53
2022-10-12T10:14:32.722Z,29.70
2022-10-12T10:18:50.148Z,31.95
2022-10-12T10:22:51.878Z,32.22
2022-10-12T10:27:03.567Z,30.38
2022-10-12T10:31:22.328Z,31.15
2022-10-12T10:35:24.009Z,30.23
2022-10-12T10:39:33.157Z,27.52
2022-10-12T10:43:37.282Z,30.90
2022-10-12T10:47:46.448Z,27.15
2022-10-12T10:52:00.548Z,26.88
2022-10-12T10:56:07.480Z,25.33
2022-10-12T11:00:37.850Z,30.73
2022-10-12T11:04:46.226Z,27.15
2022-10-12T11:08:52.656Z,29.42
2022-10-12T11:13:20.526Z,24.33
2022-10-12T11:17:29.602Z,23.67
2022-10-12T11:21:37.624Z,24.92
2022-10-12T11:25:48.985Z,26.92
2022-10-12T11:30:08.928Z,25.20
2022-10-12T11:34:17.075Z,27.95
2022-10-12T11:38:22.515Z,29.65
2022-10-12T11:42:43.261Z,27.27
2022-10-12T11:46:56.098Z,28.98
2022-10-12T11:51:03.805Z,23.90
2022-10-12T11:55:27.811Z,22.38
2022-10-12T11:59:47.829Z,22.27
2022-10-12T12:04:40.587Z,31.60
2022-10-12T12:08:40.352Z,21.60
2022-10-12T12:13:22.958Z,25.42
2022-10-12T12:17:31.572Z,30.25
2022-10-12T12:22:12.429Z,30.92
2022-10-12T12:26:18.857Z,23.02
2022-10-12T12:30:24.361Z,24.83
2022-10-12T12:34:27.893Z,31.88
2022-10-12T12:38:33.635Z,25.13
2022-10-12T12:42:36.144Z,22.83
2022-10-12T12:46:56.251Z,26.42
2022-10-12T12:51:01.589Z,23.00
2022-10-12T12:55:18.305Z,23.92
2022-10-12T12:59:34.219Z,23.98
2022-10-12T13:03:45.498Z,26.70
2022-10-12T13:08:19.752Z,23.55
2022-10-12T13:12:33.722Z,24.20
2022-10-12T13:17:31.232Z,24.52
2022-10-12T13:21:47.596Z,25.70
2022-10-12T13:26:06.481Z,25.75
2022-10-12T13:30:11.685Z,29.73
2022-10-12T13:34:21.087Z,23.67
2022-10-12T13:38:25.545Z,26.15
2022-10-12T13:42:34.957Z,23.40
2022-10-12T13:46:45.870Z,28.30
2022-10-12T13:50:52.608Z,32.78
2022-10-12T13:54:56.032Z,25.23
2022-10-12T13:59:00.251Z,27.70
2022-10-12T14:03:06.264Z,38.83
2022-10-12T14:07:17.766Z,27.05
2022-10-12T14:11:20.152Z,25.13
2022-10-12T14:15:23.431Z,31.27
2022-10-12T14:19:40.085Z,23.05
2022-10-12T14:23:48.103Z,23.02
2022-10-12T14:27:56.503Z,25.95
2022-10-12T14:32:01.576Z,28.67
2022-10-12T14:36:21.587Z,33.10
2022-10-12T14:40:34.341Z,27.33
2022-10-12T14:44:43.641Z,27.63
2022-10-12T14:48:45.317Z,33.75
2022-10-12T14:52:48.939Z,24.73
2022-10-12T14:56:50.783Z,22.55
2022-10-12T15:00:52.831Z,22.48
2022-10-12T15:04:56.398Z,34.15
2022-10-12T15:08:58.061Z,25.38
2022-10-12T15:12:59.748Z,26.88
2022-10-12T15:17:03.138Z,25.77
2022-10-12T15:21:04.896Z,30.23
2022-10-12T15:25:20.701Z,25.67
2022-10-12T15:29:22.359Z,26.75
2022-10-12T15:33:24.881Z,28.80
2022-10-12T15:37:30.245Z,27.60
2022-10-12T15:41:32.787Z,29.08
2022-10-12T15:45:36.470Z,29.15
2022-10-12T15:49:38.553Z,31.70
2022-10-12T15:53:40.894Z,30.23
2022-10-12T15:57:46.928Z,24.35
2022-10-12T16:01:49.563Z,22.05
2022-10-12T16:05:52.456Z,25.50
2022-10-12T16:09:55.156Z,27.25
2022-10-12T16:14:06.703Z,23.23
2022-10-12T16:18:19.349Z,23.15
2022-10-12T16:22:21.466Z,23.85
2022-10-12T16:26:27.357Z,22.45
2022-10-12T16:30:29.736Z,21.95
2022-10-12T16:34:31.577Z,21.80
2022-10-12T16:38:34.164Z,22.63
2022-10-12T16:47:14.018Z,36.38
2022-10-12T16:51:15.850Z,24.05
2022-10-12T16:55:19.410Z,61.90
2022-10-12T16:59:25.006Z,24.13
2022-10-12T17:03:28.392Z,28.98
2022-10-12T17:07:34.160Z,25.17
2022-10-12T17:11:38.116Z,32.85
2022-10-12T17:15:41.775Z,37.22
2022-10-12T17:19:44.162Z,42.63
2022-10-12T17:23:48.541Z,29.85
2022-10-12T17:27:50.706Z,29.02
2022-10-12T17:31:54.261Z,30.40
2022-10-12T17:35:56.688Z,33.53
2022-10-12T17:40:03.566Z,41.50
2022-10-12T17:44:09.895Z,26.92
2022-10-12T17:48:16.775Z,31.92
2022-10-12T17:52:19.084Z,26.45
2022-10-12T17:56:21.083Z,30.52
2022-10-12T18:00:23.327Z,28.15
2022-10-12T18:04:27.411Z,30.83
2022-10-12T18:08:30.924Z,32.23
2022-10-12T18:12:34.239Z,31.52
2022-10-12T18:16:36.973Z,30.10
2022-10-12T18:20:41.964Z,32.72
2022-10-12T18:24:44.705Z,35.33
2022-10-12T18:28:47.048Z,25.00
2022-10-12T18:32:48.832Z,26.52
2022-10-12T18:36:51.080Z,37.00
2022-10-12T18:40:54.270Z,24.00
2022-10-12T18:45:06.450Z,23.93
2022-10-12T18:49:10.706Z,22.38
2022-10-12T18:53:13.071Z,23.10
2022-10-12T18:57:15.352Z,23.90
2022-10-12T19:01:20.728Z,22.90
2022-10-12T19:05:25.084Z,21.27
2022-10-12T19:09:27.768Z,20.10
2022-10-12T19:13:29.571Z,19.50
2022-10-12T19:17:32.373Z,19.20
2022-10-12T19:21:34.628Z,16.83
2022-10-12T19:25:46.357Z,23.57
2022-10-12T19:29:48.639Z,19.45
2022-10-12T19:33:51.059Z,25.02
2022-10-12T19:38:05.014Z,29.23
2022-10-12T19:42:07.240Z,32.67
2022-10-12T19:46:11.363Z,16.67
2022-10-12T19:50:13.654Z,16.93
2022-10-12T19:54:15.828Z,18.40
2022-10-12T19:58:25.104Z,21.17
2022-10-12T20:02:27.265Z,18.90
2022-10-12T20:06:30.166Z,21.60
2022-10-12T20:10:31.998Z,19.73
2022-10-12T20:14:33.894Z,21.00
2022-10-12T20:18:37.209Z,27.80
2022-10-12T20:22:38.960Z,23.00
2022-10-12T20:26:42.540Z,13.10
2022-10-12T20:30:44.510Z,13.50
2022-10-12T20:34:46.395Z,17.63
2022-10-12T20:38:48.227Z,16.13
2022-10-12T20:42:51.338Z,16.03
2022-10-12T20:46:53.109Z,17.93
2022-10-12T20:50:54.855Z,12.60
2022-10-12T20:54:59.794Z,15.40
2022-10-12T20:59:02.263Z,15.67
2022-10-12T21:03:04.024Z,18.70
2022-10-12T21:07:05.736Z,20.97
2022-10-12T21:11:09.382Z,15.00
2022-10-12T21:15:11.191Z,20.27
2022-10-12T21:19:17.244Z,17.53
2022-10-12T21:23:18.982Z,18.17
2022-10-12T21:27:20.683Z,15.07
2022-10-12T21:31:27.030Z,13.27
2022-10-12T21:35:31.289Z,17.83
2022-10-12T21:39:33.190Z,20.53
2022-10-12T21:43:35.835Z,21.13
2022-10-12T21:47:37.545Z,15.03
2022-10-12T21:51:40.313Z,17.67
2022-10-12T21:55:42.131Z,18.37
2022-10-12T21:59:43.807Z,32.30
2022-10-12T22:03:48.081Z,25.40
2022-10-12T22:07:49.830Z,21.53
2022-10-12T22:12:02.757Z,20.30
2022-10-12T22:16:07.465Z,23.97
2022-10-12T22:20:10.150Z,26.77
2022-10-12T22:24:12.012Z,23.67
2022-10-12T22:28:14.010Z,25.40
2022-10-12T22:32:19.399Z,26.40
2022-10-12T22:36:21.275Z,22.43
2022-10-12T22:40:23.254Z,25.27
2022-10-12T22:44:25.080Z,20.37
2022-10-12T22:48:27.271Z,23.17
2022-10-12T22:52:35.246Z,28.27
2022-10-12T22:56:38.066Z,30.53
2022-10-12T23:00:40.303Z,28.50
2022-10-12T23:04:42.356Z,24.60
2022-10-12T23:08:44.897Z,33.57
2022-10-12T23:12:51.181Z,47.30
2022-10-12T23:16:52.885Z,51.88
2022-10-12T23:20:54.589Z,51.27
2022-10-12T23:24:56.245Z,55.57
2022-10-12T23:28:58.634Z,51.13
2022-10-12T23:33:00.818Z,47.53
2022-10-12T23:37:02.500Z,61.97
2022-10-12T23:41:05.049Z,56.77
2022-10-12T23:45:07.701Z,68.03
2022-10-12T23:49:09.533Z,62.20
2022-10-12T23:53:12.632Z,77.00
2022-10-12T23:57:34.651Z,80.63
